sensor_id;sensor_type;location;lat;lon;timestamp;P1;durP1;ratioP1;P2;durP2;ratioP2
65658;SDS011;60181;53.258;6.932;2022-08-01T00:02:34;9.40;;;3.50;;
65658;SDS011;60181;53.258;6.932;2022-08-01T00:07:02;9.40;;;3.50;;
65658;SDS011;60181;53.258;6.932;2022-08-01T00:11:30;10.20;;;3.70;;
65658;SDS011;60181;53.258;6.932;2022-08-01T00:15:58;10.20;;;3.70;;
65658;SDS011;60181;53.258;6.932;2022-08-01T00:20:26;13.40;;;3.60;;
65658;SDS011;60181;53.258;6.932;2022-08-01T00:24:54;13.40;;;3.60;;
65658;SDS011;60181;53.258;6.932;2022-08-01T00:29:22;11.70;;;3.00;;
65658;SDS011;60181;53.258;6.932;2022-08-01T00:33:50;11.70;;;3.00;;
65658;SDS011;60181;53.258;6.932;2022-08-01T00:38:18;11.70;;;3.00;;
65658;SDS011;60181;53.258;6.932;2022-08-01T00:47:14;13.40;;;2.90;;
65658;SDS011;60181;53.258;6.932;2022-08-01T00:51:42;12.20;;;2.90;;
65658;SDS011;60181;53.258;6.932;2022-08-01T00:56:10;12.20;;;2.90;;
65658;SDS011;60181;53.258;6.932;2022-08-01T01:00:38;7.50;;;2.90;;
65658;SDS011;60181;53.258;6.932;2022-08-01T01:05:06;7.50;;;2.90;;
65658;SDS011;60181;53.258;6.932;2022-08-01T01:09:50;8.20;;;2.90;;
65658;SDS011;60181;53.258;6.932;2022-08-01T01:14:04;8.20;;;2.90;;
65658;SDS011;60181;53.258;6.932;2022-08-01T01:18:34;8.20;;;2.90;;
65658;SDS011;60181;53.258;6.932;2022-08-01T01:27:35;10.10;;;2.90;;
65658;SDS011;60181;53.258;6.932;2022-08-01T01:31:55;6.10;;;2.70;;
65658;SDS011;60181;53.258;6.932;2022-08-01T01:36:22;6.10;;;2.70;;
65658;SDS011;60181;53.258;6.932;2022-08-01T01:40:50;4.90;;;2.30;;
65658;SDS011;60181;53.258;6.932;2022-08-01T01:45:18;4.90;;;2.30;;
65658;SDS011;60181;53.258;6.932;2022-08-01T01:49:46;9.30;;;2.40;;
65658;SDS011;60181;53.258;6.932;2022-08-01T01:54:14;9.30;;;2.40;;
65658;SDS011;60181;53.258;6.932;2022-08-01T01:58:42;9.30;;;2.40;;
65658;SDS011;60181;53.258;6.932;2022-08-01T02:03:11;5.50;;;2.30;;
65658;SDS011;60181;53.258;6.932;2022-08-01T02:07:38;5.50;;;2.30;;
65658;SDS011;60181;53.258;6.932;2022-08-01T02:12:07;6.80;;;2.30;;
65658;SDS011;60181;53.258;6.932;2022-08-01T02:16:34;6.80;;;2.30;;
65658;SDS011;60181;53.258;6.932;2022-08-01T02:21:03;10.50;;;2.60;;
65658;SDS011;60181;53.258;6.932;2022-08-01T02:25:48;10.50;;;2.60;;
65658;SDS011;60181;53.258;6.932;2022-08-01T02:29:59;5.90;;;2.10;;
65658;SDS011;60181;53.258;6.932;2022-08-01T02:34:26;5.90;;;2.10;;
65658;SDS011;60181;53.258;6.932;2022-08-01T02:38:54;5.90;;;2.10;;
65658;SDS011;60181;53.258;6.932;2022-08-01T02:43:22;7.20;;;2.20;;
65658;SDS011;60181;53.258;6.932;2022-08-01T02:47:50;7.20;;;2.20;;
65658;SDS011;60181;53.258;6.932;2022-08-01T02:52:18;5.60;;;2.00;;
65658;SDS011;60181;53.258;6.932;2022-08-01T02:56:46;5.60;;;2.00;;
65658;SDS011;60181;53.258;6.932;2022-08-01T03:01:14;10.50;;;2.20;;
65658;SDS011;60181;53.258;6.932;2022-08-01T03:05:42;10.50;;;2.20;;
65658;SDS011;60181;53.258;6.932;2022-08-01T03:10:10;10.70;;;2.40;;
65658;SDS011;60181;53.258;6.932;2022-08-01T03:14:38;10.70;;;2.40;;
65658;SDS011;60181;53.258;6.932;2022-08-01T03:19:07;11.00;;;2.60;;
65658;SDS011;60181;53.258;6.932;2022-08-01T03:23:34;11.00;;;2.60;;
65658;SDS011;60181;53.258;6.932;2022-08-01T03:28:03;11.00;;;2.60;;
65658;SDS011;60181;53.258;6.932;2022-08-01T03:32:30;8.80;;;2.40;;
65658;SDS011;60181;53.258;6.932;2022-08-01T03:37:09;8.80;;;2.40;;
65658;SDS011;60181;53.258;6.932;2022-08-01T03:41:26;9.50;;;2.60;;
65658;SDS011;60181;53.258;6.932;2022-08-01T03:45:54;9.50;;;2.60;;
65658;SDS011;60181;53.258;6.932;2022-08-01T03:50:22;11.70;;;3.10;;
65658;SDS011;60181;53.258;6.932;2022-08-01T03:54:49;11.70;;;3.10;;
65658;SDS011;60181;53.258;6.932;2022-08-01T03:59:18;12.70;;;2.80;;
65658;SDS011;60181;53.258;6.932;2022-08-01T04:03:45;12.70;;;2.80;;
65658;SDS011;60181;53.258;6.932;2022-08-01T04:08:13;12.70;;;2.80;;
65658;SDS011;60181;53.258;6.932;2022-08-01T04:12:41;11.10;;;2.60;;
65658;SDS011;60181;53.258;6.932;2022-08-01T04:17:09;11.10;;;2.60;;
65658;SDS011;60181;53.258;6.932;2022-08-01T04:21:37;10.70;;;2.80;;
65658;SDS011;60181;53.258;6.932;2022-08-01T04:26:05;10.70;;;2.80;;
65658;SDS011;60181;53.258;6.932;2022-08-01T04:30:34;14.80;;;3.20;;
65658;SDS011;60181;53.258;6.932;2022-08-01T04:35:06;14.80;;;3.20;;
65658;SDS011;60181;53.258;6.932;2022-08-01T04:39:32;17.90;;;2.90;;
65658;SDS011;60181;53.258;6.932;2022-08-01T04:43:57;17.90;;;2.90;;
65658;SDS011;60181;53.258;6.932;2022-08-01T04:48:26;17.90;;;2.90;;
65658;SDS011;60181;53.258;6.932;2022-08-01T04:52:53;13.00;;;2.60;;
65658;SDS011;60181;53.258;6.932;2022-08-01T04:57:21;13.00;;;2.60;;
65658;SDS011;60181;53.258;6.932;2022-08-01T05:01:49;15.00;;;2.80;;
65658;SDS011;60181;53.258;6.932;2022-08-01T05:06:17;15.00;;;2.80;;
65658;SDS011;60181;53.258;6.932;2022-08-01T05:10:45;16.20;;;3.00;;
65658;SDS011;60181;53.258;6.932;2022-08-01T05:15:13;16.20;;;3.00;;
65658;SDS011;60181;53.258;6.932;2022-08-01T05:19:41;13.90;;;2.90;;
65658;SDS011;60181;53.258;6.932;2022-08-01T05:24:09;13.90;;;2.90;;
65658;SDS011;60181;53.258;6.932;2022-08-01T05:28:37;13.90;;;2.90;;
65658;SDS011;60181;53.258;6.932;2022-08-01T05:33:05;17.40;;;2.90;;
65658;SDS011;60181;53.258;6.932;2022-08-01T05:37:33;17.40;;;2.90;;
65658;SDS011;60181;53.258;6.932;2022-08-01T05:42:02;16.70;;;3.10;;
65658;SDS011;60181;53.258;6.932;2022-08-01T05:46:29;16.70;;;3.10;;
65658;SDS011;60181;53.258;6.932;2022-08-01T05:50:57;25.20;;;3.90;;
65658;SDS011;60181;53.258;6.932;2022-08-01T05:55:25;25.20;;;3.90;;
65658;SDS011;60181;53.258;6.932;2022-08-01T05:59:53;37.20;;;5.20;;
65658;SDS011;60181;53.258;6.932;2022-08-01T06:04:21;37.20;;;5.20;;
65658;SDS011;60181;53.258;6.932;2022-08-01T06:08:49;37.20;;;5.20;;
65658;SDS011;60181;53.258;6.932;2022-08-01T06:13:17;31.40;;;4.50;;
65658;SDS011;60181;53.258;6.932;2022-08-01T06:17:45;31.40;;;4.50;;
65658;SDS011;60181;53.258;6.932;2022-08-01T06:22:13;25.80;;;4.50;;
65658;SDS011;60181;53.258;6.932;2022-08-01T06:26:41;25.80;;;4.50;;
65658;SDS011;60181;53.258;6.932;2022-08-01T06:31:09;30.50;;;4.40;;
65658;SDS011;60181;53.258;6.932;2022-08-01T06:35:37;30.50;;;4.40;;
65658;SDS011;60181;53.258;6.932;2022-08-01T06:40:07;27.60;;;4.20;;
65658;SDS011;60181;53.258;6.932;2022-08-01T06:44:33;27.60;;;4.20;;
65658;SDS011;60181;53.258;6.932;2022-08-01T06:49:01;23.80;;;4.00;;
65658;SDS011;60181;53.258;6.932;2022-08-01T06:53:29;23.80;;;4.00;;
65658;SDS011;60181;53.258;6.932;2022-08-01T06:57:57;23.80;;;4.00;;
65658;SDS011;60181;53.258;6.932;2022-08-01T07:02:25;27.00;;;4.10;;
65658;SDS011;60181;53.258;6.932;2022-08-01T07:06:53;27.00;;;4.10;;
65658;SDS011;60181;53.258;6.932;2022-08-01T07:11:21;26.30;;;3.80;;
65658;SDS011;60181;53.258;6.932;2022-08-01T07:15:49;26.30;;;3.80;;
65658;SDS011;60181;53.258;6.932;2022-08-01T07:20:17;21.20;;;4.00;;
65658;SDS011;60181;53.258;6.932;2022-08-01T07:24:45;21.20;;;4.00;;
65658;SDS011;60181;53.258;6.932;2022-08-01T07:29:13;24.20;;;3.70;;
65658;SDS011;60181;53.258;6.932;2022-08-01T07:33:41;24.20;;;3.70;;
65658;SDS011;60181;53.258;6.932;2022-08-01T07:38:09;24.20;;;3.70;;
65658;SDS011;60181;53.258;6.932;2022-08-01T07:42:37;19.20;;;3.80;;
65658;SDS011;60181;53.258;6.932;2022-08-01T07:47:05;19.20;;;3.80;;
65658;SDS011;60181;53.258;6.932;2022-08-01T07:51:33;12.60;;;3.00;;
65658;SDS011;60181;53.258;6.932;2022-08-01T07:56:01;12.60;;;3.00;;
65658;SDS011;60181;53.258;6.932;2022-08-01T08:00:29;18.90;;;3.40;;
65658;SDS011;60181;53.258;6.932;2022-08-01T08:04:57;18.90;;;3.40;;
65658;SDS011;60181;53.258;6.932;2022-08-01T08:09:25;17.80;;;3.50;;
65658;SDS011;60181;53.258;6.932;2022-08-01T08:13:53;17.80;;;3.50;;
65658;SDS011;60181;53.258;6.932;2022-08-01T08:18:21;17.80;;;3.50;;
65658;SDS011;60181;53.258;6.932;2022-08-01T08:22:49;15.70;;;3.30;;
65658;SDS011;60181;53.258;6.932;2022-08-01T08:27:17;15.70;;;3.30;;
65658;SDS011;60181;53.258;6.932;2022-08-01T08:31:45;16.40;;;3.20;;
65658;SDS011;60181;53.258;6.932;2022-08-01T08:36:13;16.40;;;3.20;;
65658;SDS011;60181;53.258;6.932;2022-08-01T08:40:41;13.80;;;3.20;;
65658;SDS011;60181;53.258;6.932;2022-08-01T08:45:09;13.80;;;3.20;;
65658;SDS011;60181;53.258;6.932;2022-08-01T08:49:37;13.50;;;3.10;;
65658;SDS011;60181;53.258;6.932;2022-08-01T08:54:06;13.50;;;3.10;;
65658;SDS011;60181;53.258;6.932;2022-08-01T08:58:33;13.50;;;3.10;;
65658;SDS011;60181;53.258;6.932;2022-08-01T09:03:01;18.80;;;2.50;;
65658;SDS011;60181;53.258;6.932;2022-08-01T09:07:29;18.80;;;2.50;;
65658;SDS011;60181;53.258;6.932;2022-08-01T09:11:57;15.90;;;2.80;;
65658;SDS011;60181;53.258;6.932;2022-08-01T09:16:25;15.90;;;2.80;;
65658;SDS011;60181;53.258;6.932;2022-08-01T09:21:07;13.90;;;2.70;;
65658;SDS011;60181;53.258;6.932;2022-08-01T09:25:21;13.90;;;2.70;;
65658;SDS011;60181;53.258;6.932;2022-08-01T09:29:50;13.30;;;2.50;;
65658;SDS011;60181;53.258;6.932;2022-08-01T09:34:24;13.30;;;2.50;;
65658;SDS011;60181;53.258;6.932;2022-08-01T09:38:45;13.30;;;2.50;;
65658;SDS011;60181;53.258;6.932;2022-08-01T09:43:13;14.80;;;2.40;;
65658;SDS011;60181;53.258;6.932;2022-08-01T09:47:41;14.80;;;2.40;;
65658;SDS011;60181;53.258;6.932;2022-08-01T09:52:22;16.90;;;2.40;;
65658;SDS011;60181;53.258;6.932;2022-08-01T09:56:40;16.90;;;2.40;;
65658;SDS011;60181;53.258;6.932;2022-08-01T10:01:05;11.40;;;2.20;;
65658;SDS011;60181;53.258;6.932;2022-08-01T10:05:34;11.40;;;2.20;;
65658;SDS011;60181;53.258;6.932;2022-08-01T10:10:11;14.10;;;2.30;;
65658;SDS011;60181;53.258;6.932;2022-08-01T10:14:29;14.10;;;2.30;;
65658;SDS011;60181;53.258;6.932;2022-08-01T10:18:57;14.10;;;2.30;;
65658;SDS011;60181;53.258;6.932;2022-08-01T10:23:26;14.90;;;2.50;;
65658;SDS011;60181;53.258;6.932;2022-08-01T10:27:53;14.90;;;2.50;;
65658;SDS011;60181;53.258;6.932;2022-08-01T10:32:21;14.50;;;2.40;;
65658;SDS011;60181;53.258;6.932;2022-08-01T10:36:49;14.50;;;2.40;;
65658;SDS011;60181;53.258;6.932;2022-08-01T10:41:17;21.90;;;2.60;;
65658;SDS011;60181;53.258;6.932;2022-08-01T10:45:45;21.90;;;2.60;;
65658;SDS011;60181;53.258;6.932;2022-08-01T10:50:15;13.60;;;2.30;;
65658;SDS011;60181;53.258;6.932;2022-08-01T10:54:41;13.60;;;2.30;;
65658;SDS011;60181;53.258;6.932;2022-08-01T10:59:09;16.90;;;2.50;;
65658;SDS011;60181;53.258;6.932;2022-08-01T11:03:37;16.90;;;2.50;;
65658;SDS011;60181;53.258;6.932;2022-08-01T11:08:20;16.90;;;2.50;;
65658;SDS011;60181;53.258;6.932;2022-08-01T11:12:39;14.30;;;2.50;;
65658;SDS011;60181;53.258;6.932;2022-08-01T11:30:25;13.40;;;2.20;;
65658;SDS011;60181;53.258;6.932;2022-08-01T11:34:56;13.40;;;2.20;;
65658;SDS011;60181;53.258;6.932;2022-08-01T11:39:21;12.30;;;2.20;;
65658;SDS011;60181;53.258;6.932;2022-08-01T11:48:17;12.30;;;2.20;;
65658;SDS011;60181;53.258;6.932;2022-08-01T11:52:45;13.20;;;2.20;;
65658;SDS011;60181;53.258;6.932;2022-08-01T11:57:14;13.20;;;2.20;;
65658;SDS011;60181;53.258;6.932;2022-08-01T12:01:41;13.20;;;2.40;;
65658;SDS011;60181;53.258;6.932;2022-08-01T12:06:09;13.20;;;2.40;;
65658;SDS011;60181;53.258;6.932;2022-08-01T12:10:37;12.10;;;2.20;;
65658;SDS011;60181;53.258;6.932;2022-08-01T12:15:06;12.10;;;2.20;;
65658;SDS011;60181;53.258;6.932;2022-08-01T12:19:33;9.60;;;2.20;;
65658;SDS011;60181;53.258;6.932;2022-08-01T12:24:01;9.60;;;2.20;;
65658;SDS011;60181;53.258;6.932;2022-08-01T12:28:29;9.60;;;2.20;;
65658;SDS011;60181;53.258;6.932;2022-08-01T12:32:57;9.10;;;2.00;;
65658;SDS011;60181;53.258;6.932;2022-08-01T12:37:25;9.10;;;2.00;;
65658;SDS011;60181;53.258;6.932;2022-08-01T12:41:53;9.10;;;2.30;;
65658;SDS011;60181;53.258;6.932;2022-08-01T12:46:21;9.10;;;2.30;;
65658;SDS011;60181;53.258;6.932;2022-08-01T12:50:49;10.10;;;2.20;;
65658;SDS011;60181;53.258;6.932;2022-08-01T12:55:21;10.10;;;2.20;;
65658;SDS011;60181;53.258;6.932;2022-08-01T12:59:45;6.80;;;1.90;;
65658;SDS011;60181;53.258;6.932;2022-08-01T13:04:13;6.80;;;1.90;;
65658;SDS011;60181;53.258;6.932;2022-08-01T13:08:41;6.80;;;1.90;;
65658;SDS011;60181;53.258;6.932;2022-08-01T13:13:09;7.30;;;2.20;;
65658;SDS011;60181;53.258;6.932;2022-08-01T13:17:37;7.30;;;2.20;;
65658;SDS011;60181;53.258;6.932;2022-08-01T13:22:05;6.80;;;1.80;;
65658;SDS011;60181;53.258;6.932;2022-08-01T13:31:02;7.20;;;2.10;;
65658;SDS011;60181;53.258;6.932;2022-08-01T13:35:29;7.20;;;2.10;;
65658;SDS011;60181;53.258;6.932;2022-08-01T13:39:57;5.30;;;2.30;;
65658;SDS011;60181;53.258;6.932;2022-08-01T13:44:25;5.30;;;2.30;;
65658;SDS011;60181;53.258;6.932;2022-08-01T13:48:53;5.30;;;2.30;;
65658;SDS011;60181;53.258;6.932;2022-08-01T13:53:21;6.60;;;2.20;;
65658;SDS011;60181;53.258;6.932;2022-08-01T13:57:49;6.60;;;2.20;;
65658;SDS011;60181;53.258;6.932;2022-08-01T14:02:17;6.30;;;2.10;;
65658;SDS011;60181;53.258;6.932;2022-08-01T14:06:45;6.30;;;2.10;;
65658;SDS011;60181;53.258;6.932;2022-08-01T14:11:13;6.80;;;2.10;;
65658;SDS011;60181;53.258;6.932;2022-08-01T14:15:41;6.80;;;2.10;;
65658;SDS011;60181;53.258;6.932;2022-08-01T14:20:10;5.40;;;2.30;;
65658;SDS011;60181;53.258;6.932;2022-08-01T14:24:37;5.40;;;2.30;;
65658;SDS011;60181;53.258;6.932;2022-08-01T14:29:05;6.50;;;2.10;;
65658;SDS011;60181;53.258;6.932;2022-08-01T14:33:33;6.50;;;2.10;;
65658;SDS011;60181;53.258;6.932;2022-08-01T14:38:01;6.50;;;2.10;;
65658;SDS011;60181;53.258;6.932;2022-08-01T14:42:29;5.10;;;2.20;;
65658;SDS011;60181;53.258;6.932;2022-08-01T14:46:57;5.10;;;2.20;;
65658;SDS011;60181;53.258;6.932;2022-08-01T14:51:25;5.30;;;2.30;;
65658;SDS011;60181;53.258;6.932;2022-08-01T14:55:53;5.30;;;2.30;;
65658;SDS011;60181;53.258;6.932;2022-08-01T15:00:21;5.40;;;2.40;;
65658;SDS011;60181;53.258;6.932;2022-08-01T15:04:49;5.40;;;2.40;;
65658;SDS011;60181;53.258;6.932;2022-08-01T15:09:17;5.50;;;2.60;;
65658;SDS011;60181;53.258;6.932;2022-08-01T15:13:45;5.50;;;2.60;;
65658;SDS011;60181;53.258;6.932;2022-08-01T15:18:13;5.50;;;2.60;;
65658;SDS011;60181;53.258;6.932;2022-08-01T15:22:41;4.70;;;2.40;;
65658;SDS011;60181;53.258;6.932;2022-08-01T15:27:09;4.70;;;2.40;;
65658;SDS011;60181;53.258;6.932;2022-08-01T15:31:37;5.10;;;2.30;;
65658;SDS011;60181;53.258;6.932;2022-08-01T15:36:05;5.10;;;2.30;;
65658;SDS011;60181;53.258;6.932;2022-08-01T15:40:33;5.80;;;2.50;;
65658;SDS011;60181;53.258;6.932;2022-08-01T15:45:01;5.80;;;2.50;;
65658;SDS011;60181;53.258;6.932;2022-08-01T15:49:29;7.10;;;2.30;;
65658;SDS011;60181;53.258;6.932;2022-08-01T15:53:57;7.10;;;2.30;;
65658;SDS011;60181;53.258;6.932;2022-08-01T15:58:25;7.10;;;2.30;;
65658;SDS011;60181;53.258;6.932;2022-08-01T16:02:53;5.60;;;2.50;;
65658;SDS011;60181;53.258;6.932;2022-08-01T16:07:21;5.60;;;2.50;;
65658;SDS011;60181;53.258;6.932;2022-08-01T16:11:49;6.00;;;2.80;;
65658;SDS011;60181;53.258;6.932;2022-08-01T16:16:17;6.00;;;2.80;;
65658;SDS011;60181;53.258;6.932;2022-08-01T16:20:45;5.60;;;2.30;;
65658;SDS011;60181;53.258;6.932;2022-08-01T16:25:13;5.60;;;2.30;;
65658;SDS011;60181;53.258;6.932;2022-08-01T16:29:41;10.20;;;2.60;;
65658;SDS011;60181;53.258;6.932;2022-08-01T16:34:09;10.20;;;2.60;;
65658;SDS011;60181;53.258;6.932;2022-08-01T16:38:37;10.20;;;2.60;;
65658;SDS011;60181;53.258;6.932;2022-08-01T16:43:05;8.00;;;2.80;;
65658;SDS011;60181;53.258;6.932;2022-08-01T16:47:33;8.00;;;2.80;;
65658;SDS011;60181;53.258;6.932;2022-08-01T16:52:01;8.40;;;2.90;;
65658;SDS011;60181;53.258;6.932;2022-08-01T16:56:29;8.40;;;2.90;;
65658;SDS011;60181;53.258;6.932;2022-08-01T17:00:57;5.70;;;2.40;;
65658;SDS011;60181;53.258;6.932;2022-08-01T17:05:25;5.70;;;2.40;;
65658;SDS011;60181;53.258;6.932;2022-08-01T17:09:53;8.00;;;2.80;;
65658;SDS011;60181;53.258;6.932;2022-08-01T17:14:21;8.00;;;2.80;;
65658;SDS011;60181;53.258;6.932;2022-08-01T17:18:49;8.00;;;2.80;;
65658;SDS011;60181;53.258;6.932;2022-08-01T17:23:17;6.30;;;2.60;;
65658;SDS011;60181;53.258;6.932;2022-08-01T17:27:45;6.30;;;2.60;;
65658;SDS011;60181;53.258;6.932;2022-08-01T17:32:13;5.00;;;2.60;;
65658;SDS011;60181;53.258;6.932;2022-08-01T17:36:41;5.00;;;2.60;;
65658;SDS011;60181;53.258;6.932;2022-08-01T17:41:09;5.90;;;2.30;;
65658;SDS011;60181;53.258;6.932;2022-08-01T17:45:37;5.90;;;2.30;;
65658;SDS011;60181;53.258;6.932;2022-08-01T17:50:06;7.50;;;2.20;;
65658;SDS011;60181;53.258;6.932;2022-08-01T17:54:33;7.50;;;2.20;;
65658;SDS011;60181;53.258;6.932;2022-08-01T17:59:01;5.80;;;2.40;;
65658;SDS011;60181;53.258;6.932;2022-08-01T18:03:29;5.80;;;2.40;;
65658;SDS011;60181;53.258;6.932;2022-08-01T18:07:57;5.80;;;2.40;;
65658;SDS011;60181;53.258;6.932;2022-08-01T18:12:25;6.50;;;2.30;;
65658;SDS011;60181;53.258;6.932;2022-08-01T18:16:54;6.50;;;2.30;;
65658;SDS011;60181;53.258;6.932;2022-08-01T18:21:21;5.30;;;2.30;;
65658;SDS011;60181;53.258;6.932;2022-08-01T18:25:49;5.30;;;2.30;;
65658;SDS011;60181;53.258;6.932;2022-08-01T18:30:17;7.00;;;2.40;;
65658;SDS011;60181;53.258;6.932;2022-08-01T18:34:45;7.00;;;2.40;;
65658;SDS011;60181;53.258;6.932;2022-08-01T18:39:13;5.10;;;2.30;;
65658;SDS011;60181;53.258;6.932;2022-08-01T18:43:41;5.10;;;2.30;;
65658;SDS011;60181;53.258;6.932;2022-08-01T18:48:09;5.10;;;2.30;;
65658;SDS011;60181;53.258;6.932;2022-08-01T18:52:37;7.20;;;2.50;;
65658;SDS011;60181;53.258;6.932;2022-08-01T18:57:05;7.20;;;2.50;;
65658;SDS011;60181;53.258;6.932;2022-08-01T19:01:33;6.10;;;2.60;;
65658;SDS011;60181;53.258;6.932;2022-08-01T19:06:01;6.10;;;2.60;;
65658;SDS011;60181;53.258;6.932;2022-08-01T19:10:29;8.00;;;2.60;;
65658;SDS011;60181;53.258;6.932;2022-08-01T19:14:57;8.00;;;2.60;;
65658;SDS011;60181;53.258;6.932;2022-08-01T19:19:25;5.80;;;2.50;;
65658;SDS011;60181;53.258;6.932;2022-08-01T19:23:53;5.80;;;2.50;;
65658;SDS011;60181;53.258;6.932;2022-08-01T19:28:22;5.80;;;2.50;;
65658;SDS011;60181;53.258;6.932;2022-08-01T19:32:49;8.70;;;2.70;;
65658;SDS011;60181;53.258;6.932;2022-08-01T19:37:17;8.70;;;2.70;;
65658;SDS011;60181;53.258;6.932;2022-08-01T19:41:45;6.10;;;2.90;;
65658;SDS011;60181;53.258;6.932;2022-08-01T19:46:13;6.10;;;2.90;;
65658;SDS011;60181;53.258;6.932;2022-08-01T19:50:41;6.10;;;2.90;;
65658;SDS011;60181;53.258;6.932;2022-08-01T19:55:09;6.10;;;2.90;;
65658;SDS011;60181;53.258;6.932;2022-08-01T19:59:37;7.40;;;2.90;;
65658;SDS011;60181;53.258;6.932;2022-08-01T20:04:05;7.40;;;2.90;;
65658;SDS011;60181;53.258;6.932;2022-08-01T20:08:33;7.40;;;2.90;;
65658;SDS011;60181;53.258;6.932;2022-08-01T20:13:01;7.60;;;2.90;;
65658;SDS011;60181;53.258;6.932;2022-08-01T20:17:29;7.60;;;2.90;;
65658;SDS011;60181;53.258;6.932;2022-08-01T20:21:58;8.50;;;3.20;;
65658;SDS011;60181;53.258;6.932;2022-08-01T20:26:26;8.50;;;3.20;;
65658;SDS011;60181;53.258;6.932;2022-08-01T20:30:54;7.50;;;3.20;;
65658;SDS011;60181;53.258;6.932;2022-08-01T20:35:21;7.50;;;3.20;;
65658;SDS011;60181;53.258;6.932;2022-08-01T20:39:49;9.00;;;3.40;;
65658;SDS011;60181;53.258;6.932;2022-08-01T20:44:20;9.00;;;3.40;;
65658;SDS011;60181;53.258;6.932;2022-08-01T20:48:45;9.00;;;3.40;;
65658;SDS011;60181;53.258;6.932;2022-08-01T20:53:13;5.70;;;3.10;;
65658;SDS011;60181;53.258;6.932;2022-08-01T20:57:42;5.70;;;3.10;;
65658;SDS011;60181;53.258;6.932;2022-08-01T21:06:37;5.90;;;3.00;;
65658;SDS011;60181;53.258;6.932;2022-08-01T21:11:05;7.40;;;3.10;;
65658;SDS011;60181;53.258;6.932;2022-08-01T21:15:40;7.40;;;3.10;;
65658;SDS011;60181;53.258;6.932;2022-08-01T21:20:02;24.10;;;3.50;;
65658;SDS011;60181;53.258;6.932;2022-08-01T21:24:33;24.10;;;3.50;;
65658;SDS011;60181;53.258;6.932;2022-08-01T21:28:57;24.10;;;3.50;;
65658;SDS011;60181;53.258;6.932;2022-08-01T21:33:25;18.40;;;3.30;;
65658;SDS011;60181;53.258;6.932;2022-08-01T21:37:53;18.40;;;3.30;;
65658;SDS011;60181;53.258;6.932;2022-08-01T21:42:21;9.40;;;2.80;;
65658;SDS011;60181;53.258;6.932;2022-08-01T21:46:49;9.40;;;2.80;;
65658;SDS011;60181;53.258;6.932;2022-08-01T22:00:14;10.80;;;2.80;;
65658;SDS011;60181;53.258;6.932;2022-08-01T22:04:42;10.80;;;2.80;;
65658;SDS011;60181;53.258;6.932;2022-08-01T22:09:09;7.90;;;2.40;;
65658;SDS011;60181;53.258;6.932;2022-08-01T22:13:37;7.90;;;2.40;;
65658;SDS011;60181;53.258;6.932;2022-08-01T22:18:05;7.90;;;2.40;;
65658;SDS011;60181;53.258;6.932;2022-08-01T22:22:33;8.90;;;2.40;;
65658;SDS011;60181;53.258;6.932;2022-08-01T22:27:01;8.90;;;2.40;;
65658;SDS011;60181;53.258;6.932;2022-08-01T22:31:29;7.90;;;2.60;;
65658;SDS011;60181;53.258;6.932;2022-08-01T22:35:57;7.90;;;2.60;;
65658;SDS011;60181;53.258;6.932;2022-08-01T22:40:25;9.80;;;2.80;;
65658;SDS011;60181;53.258;6.932;2022-08-01T22:45:03;9.80;;;2.80;;
65658;SDS011;60181;53.258;6.932;2022-08-01T22:49:33;7.60;;;2.70;;
65658;SDS011;60181;53.258;6.932;2022-08-01T22:54:00;7.60;;;2.70;;
65658;SDS011;60181;53.258;6.932;2022-08-01T22:58:17;7.60;;;2.70;;
65658;SDS011;60181;53.258;6.932;2022-08-01T23:02:46;8.10;;;2.90;;
65658;SDS011;60181;53.258;6.932;2022-08-01T23:07:22;8.10;;;2.90;;
65658;SDS011;60181;53.258;6.932;2022-08-01T23:11:40;6.50;;;2.70;;
65658;SDS011;60181;53.258;6.932;2022-08-01T23:16:08;6.50;;;2.70;;
65658;SDS011;60181;53.258;6.932;2022-08-01T23:20:36;13.10;;;2.90;;
65658;SDS011;60181;53.258;6.932;2022-08-01T23:25:06;13.10;;;2.90;;
65658;SDS011;60181;53.258;6.932;2022-08-01T23:29:32;13.10;;;2.90;;
65658;SDS011;60181;53.258;6.932;2022-08-01T23:34:00;13.10;;;2.90;;
65658;SDS011;60181;53.258;6.932;2022-08-01T23:38:28;13.10;;;2.90;;
65658;SDS011;60181;53.258;6.932;2022-08-01T23:42:56;9.20;;;3.00;;
65658;SDS011;60181;53.258;6.932;2022-08-01T23:47:24;9.20;;;3.00;;
65658;SDS011;60181;53.258;6.932;2022-08-01T23:51:52;9.20;;;3.00;;
65658;SDS011;60181;53.258;6.932;2022-08-01T23:56:20;9.20;;;3.00;;
